Hovedside
METAR-TAF:

METAR-TAF

Lufthavner :

Weno, Mikronesia

breddegrad: 07-28N, lengdegrad: 151-51E, høyde over havet: 3 m

Gjeldene værobservasjon

Denne rapporten ble laget for 15 minutter siden, klokken 01:56 UTC
Vind 4 kt fra skiftende retning
Temperatur 31°C
Luftfuktighet 84%
Trykk 1007 hPa
Sikt: 24.1 km
Få skyer i en høyde av 1400 ft
Brutte skyer i en høyde av 28000 ft

METAR: PTKK 220156Z VRB04KT 15SM FEW014 BKN280 31/28 A2973 RMK SLP069 T03060283

Tid: 12:11 (02:11 UTC)

Varsel

Denne rapporten ble laget for 2 timer og 50 minutter siden, klokken 23:21 UTC
Varsel gyldig fra 22. klokken 00 UTC til 22. klokken 24 UTC
Vind 6 kt fra Øst-nordøst
Sikt: 10 km
Få skyer i en høyde av 1400 ft
Spredte skyer i en høyde av 3000 ft

TAF: PTKK 212321Z 2200/2224 06006KT P6SM FEW014 SCT030

Værobservasjoner og værvarsel for over 4000 flyplasser (METAR- og TAF-rapporter).

Tilgjengelige stasjoner er representert av de røde og gule prikkene på kartet.

Hold musepekeren over prikken for å se navnet på stasjonen.

Klikk så for å se værobservasjoner og -varsler.

For å forandre kartet kan du klikke på den grønne knappen med svart kryss for å zoome inn, på den grønne knappen med strek for å zoome ut, eller på de grønne pilene for å se tilstøtende kart.


METAR-TAF: